createdAt,value
2023-01-10T00:00:13.758Z,4.82
2023-01-10T00:00:48.490Z,5.28
2023-01-10T00:01:20.643Z,7.85
2023-01-10T00:01:53.115Z,3.83
2023-01-10T00:02:32.667Z,5.13
2023-01-10T00:03:08.292Z,4.20
2023-01-10T00:03:46.024Z,5.15
2023-01-10T00:04:35.451Z,5.18
2023-01-10T00:05:11.218Z,6.22
2023-01-10T00:06:18.190Z,5.65
2023-01-10T00:06:52.911Z,5.68
2023-01-10T00:07:25.019Z,5.53
2023-01-10T00:07:59.767Z,5.32
2023-01-10T00:08:31.821Z,4.60
2023-01-10T00:09:06.124Z,4.60
2023-01-10T00:09:40.864Z,4.80
2023-01-10T00:10:15.418Z,5.05
2023-01-10T00:11:25.971Z,6.07
2023-01-10T00:12:13.125Z,3.83
2023-01-10T00:13:00.353Z,3.83
2023-01-10T00:13:32.517Z,3.85
2023-01-10T00:14:04.607Z,3.30
2023-01-10T00:14:36.966Z,4.63
2023-01-10T00:15:14.431Z,3.58
2023-01-10T00:15:46.840Z,3.85
2023-01-10T00:16:21.029Z,3.70
2023-01-10T00:16:55.680Z,3.88
2023-01-10T00:17:30.442Z,3.67
2023-01-10T00:18:02.685Z,4.00
2023-01-10T00:18:37.337Z,3.17
2023-01-10T00:19:10.678Z,4.32
2023-01-10T00:19:45.546Z,4.53
2023-01-10T00:20:17.932Z,4.07
2023-01-10T00:20:50.217Z,5.95
2023-01-10T00:21:24.966Z,4.20
2023-01-10T00:22:02.743Z,3.90
2023-01-10T00:22:34.912Z,3.80
2023-01-10T00:23:09.694Z,4.00
2023-01-10T00:23:43.342Z,4.55
2023-01-10T00:24:19.023Z,4.47
2023-01-10T00:24:54.746Z,4.80
2023-01-10T00:25:27.139Z,5.15
2023-01-10T00:26:01.756Z,4.57
2023-01-10T00:26:36.316Z,3.80
2023-01-10T00:32:03.087Z,4.00
2023-01-10T00:32:37.769Z,3.75
2023-01-10T00:33:15.110Z,4.20
2023-01-10T00:33:49.892Z,3.30
2023-01-10T00:34:22.011Z,5.47
2023-01-10T00:34:54.800Z,4.97
2023-01-10T00:35:29.638Z,3.45
2023-01-10T00:36:04.303Z,4.85
2023-01-10T00:36:36.557Z,5.07
2023-01-10T00:37:11.318Z,5.60
2023-01-10T00:37:43.399Z,4.65
2023-01-10T00:38:15.701Z,3.83
2023-01-10T00:38:50.399Z,4.85
2023-01-10T00:39:26.099Z,5.15
2023-01-10T00:39:58.827Z,3.42
2023-01-10T00:40:33.593Z,4.93
2023-01-10T00:41:27.689Z,4.32
2023-01-10T00:42:15.365Z,3.80
2023-01-10T00:43:04.788Z,4.35
2023-01-10T00:43:51.934Z,4.70
2023-01-10T00:44:24.137Z,3.75
2023-01-10T00:45:00.122Z,4.13
2023-01-10T00:45:34.764Z,4.47
2023-01-10T00:46:07.530Z,4.10
2023-01-10T00:46:39.872Z,3.80
2023-01-10T00:47:18.822Z,4.22
2023-01-10T00:47:57.717Z,4.00
2023-01-10T00:48:31.958Z,5.32
2023-01-10T00:49:14.031Z,4.20
2023-01-10T00:49:47.929Z,4.07
2023-01-10T00:50:20.005Z,4.32
2023-01-10T00:50:54.713Z,4.85
2023-01-10T00:51:26.811Z,4.40
2023-01-10T00:51:59.948Z,3.58
2023-01-10T00:52:34.924Z,4.80
2023-01-10T00:53:07.242Z,4.15
2023-01-10T00:53:39.363Z,4.40
2023-01-10T00:54:12.471Z,3.20
2023-01-10T00:54:50.271Z,5.22
2023-01-10T00:55:22.381Z,4.60
2023-01-10T00:55:56.926Z,4.75
2023-01-10T00:56:34.488Z,4.43
2023-01-10T00:57:08.409Z,4.53
2023-01-10T00:57:43.082Z,3.58
2023-01-10T00:58:16.637Z,4.75
2023-01-10T00:58:48.691Z,3.70
2023-01-10T00:59:23.404Z,4.68
2023-01-10T00:59:55.499Z,4.90
2023-01-10T01:00:27.707Z,4.35
2023-01-10T01:01:02.934Z,5.40
2023-01-10T01:01:35.117Z,4.03
2023-01-10T01:02:07.419Z,4.38
2023-01-10T01:02:42.160Z,3.33
2023-01-10T01:03:21.587Z,3.80
2023-01-10T01:03:53.757Z,3.75
2023-01-10T01:04:28.468Z,4.78
2023-01-10T01:06:30.148Z,5.57
2023-01-10T01:07:02.353Z,3.72
2023-01-10T01:07:34.482Z,5.10
2023-01-10T01:08:09.174Z,4.30
2023-01-10T01:08:41.284Z,4.47
2023-01-10T01:09:13.914Z,4.18
2023-01-10T01:10:01.023Z,4.78
2023-01-10T01:10:35.675Z,4.03
2023-01-10T01:11:07.873Z,4.28
2023-01-10T01:11:40.672Z,4.18
2023-01-10T01:12:15.299Z,4.95
2023-01-10T01:12:47.463Z,5.05
2023-01-10T01:13:22.047Z,4.97
2023-01-10T01:13:56.701Z,5.05
2023-01-10T01:14:28.800Z,5.30
2023-01-10T01:15:00.999Z,5.68
2023-01-10T01:15:37.498Z,6.35
2023-01-10T01:16:09.708Z,4.60
2023-01-10T01:16:44.518Z,3.85
2023-01-10T01:17:17.491Z,5.15
2023-01-10T01:17:49.779Z,3.88
2023-01-10T01:18:27.481Z,4.55
2023-01-10T01:18:59.548Z,5.30
2023-01-10T01:19:31.692Z,4.07
2023-01-10T01:20:07.084Z,4.95
2023-01-10T01:20:40.255Z,3.90
2023-01-10T01:21:12.708Z,3.60
2023-01-10T01:21:49.082Z,3.95
2023-01-10T01:22:21.226Z,4.43
2023-01-10T01:22:53.364Z,4.35
2023-01-10T01:23:25.460Z,5.53
2023-01-10T01:24:06.100Z,4.82
2023-01-10T01:24:39.524Z,5.00
2023-01-10T01:25:17.844Z,5.22
2023-01-10T01:25:53.814Z,5.03
2023-01-10T01:26:26.667Z,5.30
2023-01-10T01:26:58.841Z,4.63
2023-01-10T01:27:34.986Z,6.82
2023-01-10T01:28:08.181Z,6.07
2023-01-10T01:28:40.278Z,4.40
2023-01-10T01:29:16.728Z,4.28
2023-01-10T01:29:50.008Z,5.00
2023-01-10T01:30:51.701Z,4.60
2023-01-10T01:31:26.743Z,4.93
2023-01-10T01:31:59.181Z,6.40
2023-01-10T01:32:31.685Z,5.88
2023-01-10T01:33:06.603Z,4.53
2023-01-10T01:33:41.485Z,3.92
2023-01-10T01:34:13.639Z,4.30
2023-01-10T01:34:48.283Z,4.55
2023-01-10T01:35:20.608Z,3.90
2023-01-10T01:35:52.684Z,3.55
2023-01-10T01:36:27.352Z,4.07
2023-01-10T01:36:59.583Z,4.05
2023-01-10T01:37:31.892Z,4.10
2023-01-10T01:38:06.993Z,5.10
2023-01-10T01:38:39.720Z,6.90
2023-01-10T01:39:13.364Z,5.47
2023-01-10T01:39:48.061Z,4.30
2023-01-10T01:40:22.214Z,5.80
2023-01-10T01:40:56.678Z,5.53
2023-01-10T01:41:43.575Z,4.00
2023-01-10T01:42:26.878Z,6.20
2023-01-10T01:42:59.048Z,5.63
2023-01-10T01:43:32.105Z,5.38
2023-01-10T01:44:09.107Z,4.32
2023-01-10T01:44:42.654Z,5.65
2023-01-10T01:45:34.811Z,4.35
2023-01-10T01:46:25.818Z,5.53
2023-01-10T01:47:05.317Z,3.95
2023-01-10T01:47:43.015Z,4.20
2023-01-10T01:48:23.572Z,7.10
2023-01-10T01:48:58.715Z,5.10
2023-01-10T01:49:34.106Z,4.47
2023-01-10T01:50:09.209Z,4.18
2023-01-10T01:50:50.343Z,4.28
2023-01-10T01:51:33.061Z,4.70
2023-01-10T01:52:09.894Z,4.57
2023-01-10T01:52:42.037Z,3.75
2023-01-10T01:53:22.723Z,4.80
2023-01-10T01:53:59.326Z,3.97
2023-01-10T01:54:35.707Z,4.22
2023-01-10T01:55:08.783Z,4.30
2023-01-10T01:55:44.447Z,4.50
2023-01-10T01:56:24.020Z,5.10
2023-01-10T01:57:03.644Z,3.78
2023-01-10T01:57:35.879Z,4.43
2023-01-10T01:58:20.010Z,5.35
2023-01-10T01:58:56.625Z,3.78
2023-01-10T01:59:38.330Z,4.20
2023-01-10T02:00:12.099Z,3.70
2023-01-10T02:00:45.841Z,3.63
2023-01-10T02:01:21.055Z,4.88
2023-01-10T02:01:56.688Z,3.85
2023-01-10T02:02:31.592Z,3.08
2023-01-10T02:03:08.534Z,4.13
2023-01-10T02:03:45.429Z,3.55
2023-01-10T02:04:27.373Z,3.83
2023-01-10T02:05:03.552Z,4.45
2023-01-10T02:05:39.420Z,4.25
2023-01-10T02:06:14.860Z,4.50
2023-01-10T02:06:50.747Z,4.40
2023-01-10T02:07:25.676Z,4.03
2023-01-10T02:08:02.454Z,4.53
2023-01-10T02:08:35.160Z,4.50
2023-01-10T02:09:16.399Z,4.18
2023-01-10T02:09:56.119Z,3.45
2023-01-10T02:10:36.844Z,4.90
2023-01-10T02:11:10.721Z,4.10
2023-01-10T02:11:45.414Z,5.00
2023-01-10T02:12:17.648Z,4.75
2023-01-10T02:12:55.463Z,5.03
2023-01-10T02:13:33.078Z,6.05
2023-01-10T02:14:23.896Z,4.03
2023-01-10T02:15:05.622Z,6.07
2023-01-10T02:15:39.821Z,4.72
2023-01-10T02:16:14.773Z,5.15
2023-01-10T02:16:47.088Z,5.10
2023-01-10T02:17:19.177Z,6.25
2023-01-10T02:17:55.619Z,5.70
2023-01-10T02:18:27.755Z,5.75
2023-01-10T02:19:00.185Z,5.10
2023-01-10T02:19:51.034Z,6.72
2023-01-10T02:20:24.243Z,5.63
2023-01-10T02:21:12.102Z,6.25
2023-01-10T02:22:30.421Z,4.55
2023-01-10T02:24:00.567Z,5.00
2023-01-10T02:25:07.844Z,4.25
2023-01-10T02:26:08.643Z,6.25
2023-01-10T02:27:43.307Z,7.55
2023-01-10T02:28:47.417Z,4.07
2023-01-10T02:29:56.661Z,3.97
2023-01-10T02:30:54.171Z,4.80
2023-01-10T02:31:40.753Z,5.68
2023-01-10T02:32:43.457Z,3.92
2023-01-10T02:33:48.811Z,4.82
2023-01-10T02:34:28.894Z,4.30
2023-01-10T02:35:13.934Z,4.32
2023-01-10T02:36:02.325Z,5.22
2023-01-10T02:36:43.914Z,4.93
2023-01-10T02:37:20.236Z,5.57
2023-01-10T02:38:07.980Z,5.13
2023-01-10T02:38:52.589Z,5.53
2023-01-10T02:39:36.981Z,5.40
2023-01-10T02:40:19.460Z,4.35
2023-01-10T02:41:10.080Z,5.00
2023-01-10T02:42:28.395Z,4.43
2023-01-10T02:43:09.163Z,4.85
2023-01-10T02:43:51.283Z,4.47
2023-01-10T02:44:30.434Z,5.95
2023-01-10T02:45:10.529Z,5.03
2023-01-10T02:45:50.502Z,4.85
2023-01-10T02:46:27.771Z,6.05
2023-01-10T02:47:06.375Z,4.80
2023-01-10T02:47:41.923Z,4.75
2023-01-10T02:48:14.111Z,3.97
2023-01-10T02:48:48.733Z,5.10
2023-01-10T02:49:20.863Z,5.15
2023-01-10T02:49:55.180Z,5.40
2023-01-10T02:50:54.504Z,4.97
2023-01-10T02:51:29.273Z,4.80
2023-01-10T02:52:06.591Z,4.35
2023-01-10T02:52:38.810Z,4.68
2023-01-10T02:53:17.241Z,5.15
2023-01-10T02:53:56.217Z,3.92
2023-01-10T02:54:33.872Z,5.50
2023-01-10T02:55:06.623Z,4.72
2023-01-10T02:56:02.577Z,4.80
2023-01-10T02:56:54.199Z,4.47
2023-01-10T02:57:47.749Z,4.22
2023-01-10T02:58:32.227Z,5.88
2023-01-10T02:59:29.688Z,8.13
2023-01-10T03:00:33.454Z,4.97
2023-01-10T03:01:14.043Z,5.57
2023-01-10T03:01:56.625Z,5.25
2023-01-10T03:03:01.317Z,5.38
2023-01-10T03:03:40.749Z,5.22
2023-01-10T03:04:27.301Z,4.63
2023-01-10T03:05:29.482Z,5.25
2023-01-10T03:06:22.221Z,4.78
2023-01-10T03:07:02.557Z,5.43
2023-01-10T03:07:42.786Z,6.05
2023-01-10T03:08:28.301Z,4.57
2023-01-10T03:09:10.015Z,4.53
2023-01-10T03:09:55.582Z,5.20
2023-01-10T03:10:33.826Z,7.57
2023-01-10T03:11:08.294Z,4.38
2023-01-10T03:11:48.288Z,6.35
2023-01-10T03:12:25.468Z,5.40
2023-01-10T03:13:02.366Z,5.20
2023-01-10T03:13:44.352Z,5.45
2023-01-10T03:14:19.339Z,5.93
2023-01-10T03:14:54.010Z,7.22
2023-01-10T03:15:32.172Z,6.57
2023-01-10T03:16:10.683Z,5.45
2023-01-10T03:16:54.740Z,4.95
2023-01-10T03:17:29.762Z,5.40
2023-01-10T03:18:10.299Z,5.03
2023-01-10T03:18:47.479Z,4.78
2023-01-10T03:19:23.016Z,4.30
2023-01-10T03:20:01.607Z,5.03
2023-01-10T03:20:37.635Z,5.65
2023-01-10T03:21:12.121Z,6.50
2023-01-10T03:21:47.345Z,6.20
2023-01-10T03:22:19.664Z,5.50
2023-01-10T03:22:56.131Z,6.45
2023-01-10T03:23:31.315Z,5.18
2023-01-10T03:24:08.043Z,5.32
2023-01-10T03:24:50.117Z,6.50
2023-01-10T03:25:26.648Z,5.80
2023-01-10T03:25:58.988Z,5.43
2023-01-10T03:26:44.006Z,6.75
2023-01-10T03:27:22.435Z,5.85
2023-01-10T03:28:05.152Z,5.35
2023-01-10T03:28:45.661Z,5.90
2023-01-10T03:29:30.103Z,5.45
2023-01-10T03:30:11.061Z,5.03
2023-01-10T03:30:47.329Z,8.55
2023-01-10T03:31:26.778Z,6.35
2023-01-10T03:32:05.009Z,4.97
2023-01-10T03:32:42.992Z,5.65
2023-01-10T03:33:23.361Z,6.13
2023-01-10T03:34:27.879Z,5.72
2023-01-10T03:35:03.840Z,5.38
2023-01-10T03:35:44.432Z,5.45
2023-01-10T03:36:30.935Z,6.30
2023-01-10T03:37:11.256Z,7.47
2023-01-10T03:37:52.923Z,6.57
2023-01-10T03:38:32.745Z,7.07
2023-01-10T03:39:15.732Z,5.32
2023-01-10T03:40:00.616Z,5.68
2023-01-10T03:40:44.236Z,5.72
2023-01-10T03:41:26.591Z,8.13
2023-01-10T03:42:10.386Z,5.57
2023-01-10T03:43:04.209Z,6.05
2023-01-10T03:43:59.276Z,6.00
2023-01-10T03:44:46.162Z,5.45
2023-01-10T03:45:28.695Z,8.98
2023-01-10T03:46:05.469Z,6.93
2023-01-10T03:46:45.260Z,7.82
2023-01-10T03:47:26.120Z,6.00
2023-01-10T03:48:04.133Z,5.78
2023-01-10T03:48:43.969Z,6.22
2023-01-10T03:49:18.774Z,5.65
2023-01-10T03:49:58.796Z,5.88
2023-01-10T03:50:32.318Z,5.95
2023-01-10T03:51:07.126Z,5.75
2023-01-10T03:51:43.323Z,6.28
2023-01-10T03:52:18.335Z,5.43
2023-01-10T03:52:50.529Z,5.72
2023-01-10T03:53:25.710Z,5.68
2023-01-10T03:54:00.143Z,6.00
2023-01-10T03:54:32.254Z,7.45
2023-01-10T03:55:08.643Z,6.97
2023-01-10T03:56:08.693Z,12.43
2023-01-10T03:56:47.717Z,7.43
2023-01-10T03:57:24.799Z,8.13
2023-01-10T03:57:57.191Z,4.95
2023-01-10T03:58:37.784Z,7.18
2023-01-10T03:59:09.918Z,5.30
2023-01-10T03:59:42.193Z,5.82
2023-01-10T04:00:18.882Z,6.57
2023-01-10T04:00:51.101Z,5.82
2023-01-10T04:01:23.391Z,6.38
2023-01-10T04:01:58.556Z,5.88
2023-01-10T04:02:32.250Z,4.95
2023-01-10T04:03:04.689Z,5.80
2023-01-10T04:03:41.953Z,5.13
2023-01-10T04:04:14.086Z,5.78
2023-01-10T04:04:46.325Z,4.63
2023-01-10T04:05:20.999Z,5.03
2023-01-10T04:05:53.086Z,5.20
2023-01-10T04:06:25.175Z,6.20
2023-01-10T04:06:57.263Z,5.75
2023-01-10T04:07:31.936Z,5.72
2023-01-10T04:08:05.595Z,6.00
2023-01-10T04:08:37.716Z,5.72
2023-01-10T04:09:10.253Z,5.25
2023-01-10T04:09:44.931Z,4.47
2023-01-10T04:10:17.265Z,5.20
2023-01-10T04:10:49.513Z,5.72
2023-01-10T04:11:27.136Z,5.03
2023-01-10T04:12:00.534Z,5.25
2023-01-10T04:12:33.085Z,5.43
2023-01-10T04:21:17.327Z,5.15
2023-01-10T04:21:54.641Z,5.80
2023-01-10T04:22:27.007Z,8.57
2023-01-10T04:22:59.204Z,6.78
2023-01-10T04:23:33.869Z,5.53
2023-01-10T04:24:12.548Z,5.18
2023-01-10T04:24:51.465Z,7.22
2023-01-10T04:25:24.549Z,5.60
2023-01-10T04:25:56.782Z,5.65
2023-01-10T04:26:33.936Z,7.53
2023-01-10T04:27:11.988Z,7.97
2023-01-10T04:29:13.449Z,5.32
2023-01-10T04:29:45.723Z,5.70
2023-01-10T04:30:18.256Z,5.60
2023-01-10T04:31:08.829Z,6.07
2023-01-10T04:32:16.358Z,6.57
2023-01-10T04:32:51.529Z,6.53
2023-01-10T04:33:23.659Z,7.30
2023-01-10T04:33:55.747Z,6.45
2023-01-10T04:34:30.572Z,6.10
2023-01-10T04:35:02.698Z,6.53
2023-01-10T04:35:37.465Z,10.13
2023-01-10T04:36:09.784Z,9.60
2023-01-10T04:36:48.864Z,6.30
2023-01-10T04:37:27.031Z,7.75
2023-01-10T04:38:00.949Z,5.88
2023-01-10T04:38:35.724Z,6.47
2023-01-10T04:39:08.330Z,6.57
2023-01-10T04:39:41.312Z,7.10
2023-01-10T04:40:19.636Z,5.93
2023-01-10T04:40:55.888Z,5.22
2023-01-10T04:41:31.338Z,6.40
2023-01-10T04:42:06.213Z,16.63
2023-01-10T04:42:38.372Z,7.05
2023-01-10T04:43:11.234Z,5.88
2023-01-10T04:44:11.566Z,9.40
2023-01-10T04:44:46.234Z,7.40
2023-01-10T04:45:20.472Z,7.57
2023-01-10T04:45:52.894Z,7.28
2023-01-10T04:46:27.697Z,6.32
2023-01-10T04:47:05.881Z,5.70
2023-01-10T04:47:40.535Z,7.57
2023-01-10T04:48:12.657Z,7.32
2023-01-10T04:48:44.817Z,7.07
2023-01-10T04:49:19.460Z,6.60
2023-01-10T04:49:51.555Z,6.45
2023-01-10T04:50:23.834Z,6.72
2023-01-10T04:50:55.952Z,5.60
2023-01-10T04:51:31.453Z,7.43
2023-01-10T04:52:04.156Z,6.30
2023-01-10T04:52:38.784Z,10.30
2023-01-10T04:53:17.941Z,7.05
2023-01-10T04:53:50.022Z,7.57
2023-01-10T04:54:22.655Z,6.78
2023-01-10T04:54:57.527Z,5.22
2023-01-10T04:55:29.673Z,5.97
2023-01-10T04:56:06.229Z,5.75
2023-01-10T04:56:41.004Z,5.78
2023-01-10T04:58:42.083Z,6.70
2023-01-10T04:59:14.214Z,5.57
2023-01-10T04:59:46.530Z,6.22
2023-01-10T05:00:21.791Z,7.22
2023-01-10T05:00:54.024Z,6.93
2023-01-10T05:01:26.660Z,7.20
2023-01-10T05:02:01.967Z,7.18
2023-01-10T05:02:34.223Z,7.35
2023-01-10T05:03:21.788Z,6.40
2023-01-10T05:03:59.243Z,7.60
2023-01-10T05:04:31.635Z,6.40
2023-01-10T05:05:03.819Z,6.68
2023-01-10T05:05:40.806Z,6.95
2023-01-10T05:06:13.078Z,7.93
2023-01-10T05:06:45.183Z,7.15
2023-01-10T05:07:19.917Z,7.13
2023-01-10T05:07:54.811Z,5.68
2023-01-10T05:08:26.903Z,7.38
2023-01-10T05:09:01.768Z,6.22
2023-01-10T05:09:33.966Z,5.93
2023-01-10T05:10:08.677Z,7.18
2023-01-10T05:10:43.305Z,7.05
2023-01-10T05:11:15.638Z,7.35
2023-01-10T05:11:47.745Z,9.13
2023-01-10T05:12:24.671Z,6.03
2023-01-10T05:12:56.765Z,7.47
2023-01-10T05:13:30.428Z,7.63
2023-01-10T05:14:05.117Z,7.25
2023-01-10T05:14:37.283Z,6.80
2023-01-10T05:15:10.186Z,6.97
2023-01-10T05:15:44.936Z,6.60
2023-01-10T05:16:21.689Z,6.10
2023-01-10T05:16:53.883Z,8.30
2023-01-10T05:17:29.055Z,8.02
2023-01-10T05:18:31.610Z,6.82
2023-01-10T05:19:06.465Z,8.77
2023-01-10T05:19:38.545Z,8.65
2023-01-10T05:20:13.577Z,7.43
2023-01-10T05:20:48.255Z,6.47
2023-01-10T05:21:20.457Z,7.57
2023-01-10T05:21:53.395Z,9.63
2023-01-10T05:22:28.239Z,6.97
2023-01-10T05:23:02.912Z,6.22
2023-01-10T05:23:34.981Z,6.75
2023-01-10T05:24:10.161Z,7.00
2023-01-10T05:24:42.259Z,7.60
2023-01-10T05:25:14.526Z,6.93
2023-01-10T05:25:49.163Z,7.70
2023-01-10T05:26:23.697Z,9.25
2023-01-10T05:26:55.759Z,7.18
2023-01-10T05:27:33.513Z,8.23
2023-01-10T05:28:05.623Z,7.10
2023-01-10T05:30:15.806Z,7.10
2023-01-10T05:30:49.138Z,6.47
2023-01-10T05:31:21.271Z,6.50
2023-01-10T05:31:58.228Z,7.30
2023-01-10T05:32:30.581Z,8.52
2023-01-10T05:33:05.845Z,6.65
2023-01-10T05:33:41.237Z,8.18
2023-01-10T05:34:13.411Z,8.02
2023-01-10T05:34:46.117Z,8.35
2023-01-10T05:35:20.967Z,9.25
2023-01-10T05:35:53.066Z,6.60
2023-01-10T05:36:25.275Z,8.15
2023-01-10T05:37:02.895Z,8.50
2023-01-10T05:37:35.148Z,7.88
2023-01-10T05:38:09.815Z,8.77
2023-01-10T05:38:44.576Z,9.30
2023-01-10T05:39:16.948Z,10.02
2023-01-10T05:39:49.020Z,8.98
2023-01-10T05:40:23.707Z,8.63
2023-01-10T05:40:56.415Z,8.18
2023-01-10T05:42:01.064Z,9.88
2023-01-10T05:42:33.230Z,12.40
2023-01-10T05:43:07.880Z,10.98
2023-01-10T05:43:42.913Z,9.18
2023-01-10T05:44:15.034Z,10.23
2023-01-10T05:44:47.129Z,11.70
2023-01-10T05:45:23.247Z,10.52
2023-01-10T05:45:55.481Z,8.65
2023-01-10T05:46:30.267Z,8.23
2023-01-10T05:47:03.150Z,8.27
2023-01-10T05:47:35.325Z,8.10
2023-01-10T05:48:10.425Z,7.97
2023-01-10T05:48:45.702Z,9.07
2023-01-10T05:49:17.823Z,8.48
2023-01-10T05:49:55.028Z,9.63
2023-01-10T05:50:27.168Z,7.97
2023-01-10T05:51:11.369Z,8.77
2023-01-10T05:51:46.044Z,7.28
2023-01-10T05:52:18.139Z,8.27
2023-01-10T05:52:53.220Z,9.68
2023-01-10T05:53:30.669Z,10.10
2023-01-10T05:54:05.981Z,9.93
2023-01-10T05:54:38.069Z,8.55
2023-01-10T05:55:12.929Z,9.02
2023-01-10T05:55:52.298Z,10.05
2023-01-10T05:56:24.444Z,11.45
2023-01-10T05:56:59.185Z,12.65
2023-01-10T05:57:31.331Z,10.55
2023-01-10T05:58:03.666Z,9.35
2023-01-10T05:58:38.353Z,8.63
2023-01-10T05:59:23.781Z,9.15
2023-01-10T05:59:59.286Z,10.25
2023-01-10T06:00:33.928Z,9.00
2023-01-10T06:01:06.104Z,13.05
2023-01-10T06:01:38.213Z,11.77
2023-01-10T06:02:13.254Z,10.98
2023-01-10T06:02:45.596Z,9.32
2023-01-10T06:03:17.981Z,10.82
2023-01-10T06:03:52.674Z,10.02
2023-01-10T06:04:24.881Z,10.50
2023-01-10T06:04:56.942Z,12.35
2023-01-10T06:05:31.716Z,9.15
2023-01-10T06:06:04.389Z,10.18
2023-01-10T06:06:39.119Z,9.88
2023-01-10T06:07:11.252Z,13.23
2023-01-10T06:07:43.373Z,12.73
2023-01-10T06:08:18.178Z,11.32
2023-01-10T06:08:56.104Z,9.55
2023-01-10T06:09:28.334Z,11.75
2023-01-10T06:10:03.000Z,10.65
2023-01-10T06:10:35.166Z,9.68
2023-01-10T06:11:08.042Z,8.63
2023-01-10T06:11:42.777Z,9.13
2023-01-10T06:12:14.907Z,9.40
2023-01-10T06:12:49.755Z,10.23
2023-01-10T06:13:24.504Z,10.10
2023-01-10T06:13:56.808Z,8.80
2023-01-10T06:14:29.041Z,9.27
2023-01-10T06:15:03.942Z,9.38
2023-01-10T06:15:38.477Z,9.02
2023-01-10T06:16:10.739Z,9.10
2023-01-10T06:16:45.457Z,10.93
2023-01-10T06:17:18.561Z,9.48
2023-01-10T06:17:50.633Z,8.93
2023-01-10T06:18:25.288Z,9.13
2023-01-10T06:19:02.067Z,9.27
2023-01-10T06:19:34.260Z,8.73
2023-01-10T06:20:13.584Z,10.05
2023-01-10T06:20:45.665Z,9.40
2023-01-10T06:21:17.805Z,10.93
2023-01-10T06:21:52.488Z,9.02
2023-01-10T06:22:24.698Z,9.63
2023-01-10T06:22:56.893Z,9.32
2023-01-10T06:23:32.135Z,9.95
2023-01-10T06:24:07.768Z,9.80
2023-01-10T06:24:40.170Z,9.15
2023-01-10T06:25:18.611Z,7.68
2023-01-10T06:25:50.738Z,8.82
2023-01-10T06:26:28.213Z,8.40
2023-01-10T06:27:00.374Z,11.88
2023-01-10T06:27:35.041Z,10.25
2023-01-10T06:28:07.527Z,7.68
2023-01-10T06:28:41.179Z,8.48
2023-01-10T06:29:21.232Z,9.05
2023-01-10T06:29:53.295Z,9.35
2023-01-10T06:30:28.035Z,11.52
2023-01-10T06:31:00.269Z,9.88
2023-01-10T06:31:35.075Z,9.65
2023-01-10T06:32:07.263Z,9.82
2023-01-10T06:32:40.615Z,10.43
2023-01-10T06:33:15.496Z,9.15
2023-01-10T06:33:50.531Z,9.63
2023-01-10T06:34:22.618Z,10.50
2023-01-10T06:34:57.494Z,11.00
2023-01-10T06:35:30.031Z,9.80
2023-01-10T06:36:09.905Z,9.68
2023-01-10T06:36:44.546Z,10.55
2023-01-10T06:37:20.295Z,8.50
2023-01-10T06:37:52.484Z,8.70
2023-01-10T06:38:27.187Z,9.45
2023-01-10T06:38:59.310Z,9.07
2023-01-10T06:39:34.119Z,9.05
2023-01-10T06:40:10.199Z,11.93
2023-01-10T06:40:45.269Z,10.55
2023-01-10T06:41:17.345Z,10.23
2023-01-10T06:41:52.075Z,8.13
2023-01-10T06:42:26.909Z,9.95
2023-01-10T06:42:59.382Z,11.68
2023-01-10T06:43:34.031Z,11.38
2023-01-10T06:44:06.372Z,10.07
2023-01-10T06:44:41.136Z,9.15
2023-01-10T06:45:13.204Z,10.20
2023-01-10T06:45:47.905Z,9.10
2023-01-10T06:47:57.350Z,10.40
2023-01-10T06:48:29.439Z,9.13
2023-01-10T06:49:04.201Z,12.90
2023-01-10T06:49:36.313Z,10.25
2023-01-10T06:50:12.910Z,8.98
2023-01-10T06:50:45.000Z,9.90
2023-01-10T06:51:20.523Z,8.68
2023-01-10T06:51:52.659Z,10.63
2023-01-10T06:52:27.353Z,10.73
2023-01-10T06:53:00.902Z,9.80
2023-01-10T06:53:33.196Z,10.07
2023-01-10T06:54:07.943Z,9.45
2023-01-10T06:54:42.580Z,9.55
2023-01-10T06:55:14.815Z,9.63
2023-01-10T06:55:50.681Z,9.07
2023-01-10T06:56:22.797Z,11.48
2023-01-10T06:56:54.947Z,10.55
2023-01-10T06:57:35.465Z,10.63
2023-01-10T06:58:07.696Z,11.57
2023-01-10T07:01:31.497Z,9.18
2023-01-10T07:02:03.771Z,7.88
2023-01-10T07:02:36.960Z,9.00
2023-01-10T07:03:12.809Z,7.88
2023-01-10T07:03:45.056Z,12.02
2023-01-10T07:04:17.255Z,10.70
2023-01-10T07:04:52.003Z,10.50
2023-01-10T07:05:24.179Z,7.95
2023-01-10T07:06:00.319Z,12.07
2023-01-10T07:06:35.075Z,9.30
2023-01-10T07:07:07.240Z,9.93
2023-01-10T07:07:39.315Z,9.15
2023-01-10T07:08:15.227Z,10.27
2023-01-10T07:08:47.854Z,9.63
2023-01-10T07:09:22.563Z,8.93
2023-01-10T07:09:57.311Z,10.43
2023-01-10T07:10:29.497Z,9.40
2023-01-10T07:11:04.373Z,8.55
2023-01-10T07:11:36.521Z,9.75
2023-01-10T07:12:08.592Z,9.90
2023-01-10T07:12:43.279Z,8.35
2023-01-10T07:13:15.394Z,9.90
2023-01-10T07:13:47.667Z,8.35
2023-01-10T07:14:22.426Z,9.43
2023-01-10T07:14:54.665Z,7.97
2023-01-10T07:15:27.401Z,10.60
2023-01-10T07:16:05.978Z,11.30
2023-01-10T07:16:38.147Z,10.88
2023-01-10T07:17:12.798Z,10.80
2023-01-10T07:17:44.871Z,10.10
2023-01-10T07:18:20.521Z,10.75
2023-01-10T07:18:58.379Z,11.18
2023-01-10T07:19:30.504Z,9.82
2023-01-10T07:20:05.179Z,9.90
2023-01-10T07:20:37.250Z,9.68
2023-01-10T07:21:13.024Z,11.07
2023-01-10T07:21:45.168Z,8.82
2023-01-10T07:22:17.339Z,11.38
2023-01-10T07:22:57.435Z,7.75
2023-01-10T07:23:31.266Z,10.50
2023-01-10T07:24:03.694Z,10.00
2023-01-10T07:24:38.324Z,9.70
2023-01-10T07:25:13.002Z,10.70
2023-01-10T07:25:45.282Z,10.40
2023-01-10T07:26:20.784Z,10.65
2023-01-10T07:26:55.088Z,10.10
2023-01-10T07:31:45.867Z,10.63
2023-01-10T07:32:18.131Z,10.43
2023-01-10T07:32:54.083Z,10.02
2023-01-10T07:33:28.731Z,11.43
2023-01-10T07:34:01.011Z,11.68
2023-01-10T07:34:33.094Z,11.07
2023-01-10T07:35:08.368Z,16.13
2023-01-10T07:35:40.556Z,10.27
2023-01-10T07:36:13.090Z,12.35
2023-01-10T07:36:47.756Z,10.88
2023-01-10T07:37:20.050Z,13.93
2023-01-10T07:37:52.275Z,13.38
2023-01-10T07:38:27.001Z,11.20
2023-01-10T07:41:58.189Z,11.15
2023-01-10T07:42:30.400Z,10.00
2023-01-10T07:43:05.752Z,9.50
2023-01-10T07:43:38.080Z,13.45
2023-01-10T07:44:10.272Z,12.10
2023-01-10T07:44:44.965Z,13.77
2023-01-10T07:45:47.239Z,10.80
2023-01-10T07:46:22.003Z,10.30
2023-01-10T07:46:55.209Z,11.80
2023-01-10T07:47:28.638Z,10.68
2023-01-10T07:48:04.702Z,10.85
2023-01-10T07:48:36.998Z,11.80
2023-01-10T07:53:26.440Z,9.60
2023-01-10T07:53:58.671Z,11.30
2023-01-10T07:54:33.332Z,11.07
2023-01-10T07:55:09.927Z,15.30
2023-01-10T07:55:43.647Z,12.75
2023-01-10T07:56:22.639Z,11.38
2023-01-10T07:57:20.915Z,11.95
2023-01-10T07:57:58.197Z,13.93
2023-01-10T07:58:30.420Z,15.15
2023-01-10T07:59:07.620Z,15.40
2023-01-10T07:59:54.754Z,15.90
2023-01-10T08:00:29.872Z,11.52
2023-01-10T08:01:03.561Z,11.05
2023-01-10T08:01:41.168Z,11.88
2023-01-10T08:02:13.293Z,12.63
2023-01-10T08:02:48.402Z,11.98
2023-01-10T08:03:20.663Z,12.57
2023-01-10T08:03:55.523Z,11.50
2023-01-10T08:04:30.623Z,12.20
2023-01-10T08:05:02.869Z,15.30
2023-01-10T08:05:37.533Z,13.20
2023-01-10T08:06:11.267Z,12.00
2023-01-10T08:06:48.307Z,13.05
2023-01-10T08:07:20.397Z,12.00
2023-01-10T08:08:07.194Z,12.38
2023-01-10T08:08:56.908Z,14.18
2023-01-10T08:09:28.984Z,11.35
2023-01-10T08:10:02.107Z,13.85
2023-01-10T08:10:37.795Z,14.00
2023-01-10T08:11:09.910Z,12.02
2023-01-10T08:11:43.426Z,12.15
2023-01-10T08:12:20.655Z,9.93
2023-01-10T08:12:52.810Z,10.85
2023-01-10T08:13:24.881Z,12.23
2023-01-10T08:13:59.540Z,10.65
2023-01-10T08:14:31.688Z,11.60
2023-01-10T08:15:04.408Z,10.85
2023-01-10T08:15:39.202Z,11.68
2023-01-10T08:16:11.466Z,12.55
2023-01-10T08:16:43.583Z,10.43
2023-01-10T08:17:18.351Z,10.43
2023-01-10T08:17:50.441Z,10.45
2023-01-10T08:18:26.101Z,11.40
2023-01-10T08:18:58.148Z,11.93
2023-01-10T08:19:30.239Z,11.18
2023-01-10T08:20:05.725Z,12.20
2023-01-10T08:20:37.849Z,14.15
2023-01-10T08:21:12.905Z,11.60
2023-01-10T08:21:46.159Z,10.95
2023-01-10T08:22:21.057Z,10.73
2023-01-10T08:22:53.187Z,12.50
2023-01-10T08:23:27.877Z,10.05
2023-01-10T08:24:00.425Z,9.95
2023-01-10T08:24:35.139Z,12.15
2023-01-10T08:25:07.917Z,11.88
2023-01-10T08:25:42.671Z,12.13
2023-01-10T08:26:14.804Z,10.63
2023-01-10T08:26:49.447Z,10.70
2023-01-10T08:27:24.088Z,11.50
2023-01-10T08:27:56.629Z,11.38
2023-01-10T08:28:31.462Z,11.68
2023-01-10T08:29:03.613Z,11.00
2023-01-10T08:29:38.285Z,13.32
2023-01-10T08:30:12.905Z,10.73
2023-01-10T08:30:45.528Z,9.60
2023-01-10T08:31:20.430Z,11.70
2023-01-10T08:31:52.585Z,10.15
2023-01-10T08:32:27.282Z,9.95
2023-01-10T08:33:03.997Z,10.50
2023-01-10T08:33:42.347Z,9.80
2023-01-10T08:34:14.536Z,9.15
2023-01-10T08:35:19.615Z,9.88
2023-01-10T08:35:51.972Z,9.65
2023-01-10T08:36:28.991Z,9.75
2023-01-10T08:37:01.090Z,10.20
2023-01-10T08:37:35.995Z,9.18